createdAt,value
2022-08-17T00:01:30.173Z,98903.47
2022-08-17T00:04:11.749Z,98900.94
2022-08-17T00:06:38.623Z,98895.03
2022-08-17T00:09:05.780Z,98889.97
2022-08-17T00:11:36.379Z,98893.44
2022-08-17T00:14:13.140Z,98899.63
2022-08-17T00:16:57.094Z,98897.97
2022-08-17T00:19:26.179Z,98897.16
2022-08-17T00:22:29.917Z,98893.72
2022-08-17T00:24:44.381Z,98895.50
2022-08-17T00:27:10.974Z,98896.47
2022-08-17T00:29:37.660Z,98894.78
2022-08-17T00:33:14.906Z,98891.34
2022-08-17T00:34:51.168Z,98891.44
2022-08-17T00:37:17.915Z,98895.00
2022-08-17T00:39:44.616Z,98894.19
2022-08-17T00:42:16.488Z,98892.59
2022-08-17T00:44:43.069Z,98892.75
2022-08-17T00:47:09.801Z,98890.22
2022-08-17T00:49:36.431Z,98884.34
2022-08-17T00:52:10.859Z,98881.03
2022-08-17T00:54:42.083Z,98876.75
2022-08-17T00:57:16.374Z,98881.97
2022-08-17T00:59:47.189Z,98885.53
2022-08-17T01:02:41.693Z,98884.84
2022-08-17T01:05:14.466Z,98897.84
2022-08-17T01:07:42.859Z,98895.41
2022-08-17T01:11:00.379Z,98901.53
2022-08-17T01:13:02.528Z,98902.56
2022-08-17T01:15:31.606Z,98909.59
2022-08-17T01:17:58.195Z,98904.47
2022-08-17T01:20:25.199Z,98903.72
2022-08-17T01:22:52.422Z,98903.78
2022-08-17T01:25:20.615Z,98890.03
2022-08-17T01:27:48.412Z,98896.19
2022-08-17T01:30:57.314Z,98884.13
2022-08-17T01:33:02.555Z,98885.94
2022-08-17T01:35:29.176Z,98885.09
2022-08-17T01:37:55.742Z,98889.47
2022-08-17T01:40:22.570Z,98880.78
2022-08-17T01:42:55.797Z,98876.50
2022-08-17T01:45:30.385Z,98873.91
2022-08-17T01:47:57.471Z,98867.00
2022-08-17T01:50:31.536Z,98875.69
2022-08-17T01:53:07.442Z,98875.69
2022-08-17T01:55:40.021Z,98866.19
2022-08-17T01:58:09.683Z,98876.56
2022-08-17T02:00:46.618Z,98878.31
2022-08-17T02:03:25.505Z,98864.53
2022-08-17T02:05:53.260Z,98870.59
2022-08-17T02:08:39.232Z,98861.97
2022-08-17T02:11:13.784Z,98859.38
2022-08-17T02:13:40.433Z,98855.06
2022-08-17T02:16:07.008Z,98862.91
2022-08-17T02:18:33.795Z,98868.06
2022-08-17T02:21:00.727Z,98862.09
2022-08-17T02:23:30.447Z,98862.16
2022-08-17T02:25:59.910Z,98853.47
2022-08-17T02:28:28.330Z,98856.97
2022-08-17T02:31:00.859Z,98851.78
2022-08-17T02:33:37.292Z,98857.03
2022-08-17T02:36:09.514Z,98854.50
2022-08-17T02:38:37.098Z,98858.91
2022-08-17T02:41:04.565Z,98849.50
2022-08-17T02:43:31.440Z,98849.56
2022-08-17T02:45:58.215Z,98854.00
2022-08-17T02:48:30.566Z,98856.69
2022-08-17T02:50:58.790Z,98855.81
2022-08-17T02:53:25.762Z,98857.63
2022-08-17T02:55:53.379Z,98852.50
2022-08-17T02:58:35.131Z,98857.72
2022-08-17T03:01:04.585Z,98858.63
2022-08-17T03:03:31.332Z,98856.09
2022-08-17T03:05:57.886Z,98856.09
2022-08-17T03:08:25.394Z,98866.47
2022-08-17T03:10:52.211Z,98862.06
2022-08-17T03:13:19.038Z,98862.06
2022-08-17T03:15:46.807Z,98864.66
2022-08-17T03:18:24.363Z,98856.09
2022-08-17T03:20:55.209Z,98858.63
2022-08-17T03:23:23.794Z,98862.91
2022-08-17T03:25:53.361Z,98858.56
2022-08-17T03:28:21.042Z,98861.09
2022-08-17T03:30:47.958Z,98857.66
2022-08-17T03:33:14.944Z,98866.28
2022-08-17T03:35:41.778Z,98862.81
2022-08-17T03:38:15.120Z,98865.38
2022-08-17T03:40:56.648Z,98863.69
2022-08-17T03:43:25.254Z,98871.47
2022-08-17T03:46:28.178Z,98870.63
2022-08-17T03:49:16.129Z,98862.81
2022-08-17T03:52:00.995Z,98870.56
2022-08-17T03:54:46.334Z,98866.22
2022-08-17T03:57:13.683Z,98866.94
2022-08-17T03:59:40.918Z,98867.69
2022-08-17T04:02:25.581Z,98862.31
2022-08-17T04:04:52.495Z,98857.03
2022-08-17T04:07:20.828Z,98850.81
2022-08-17T04:09:47.445Z,98847.13
2022-08-17T04:12:21.591Z,98856.44
2022-08-17T04:14:53.029Z,98845.13
2022-08-17T04:17:24.331Z,98844.91
2022-08-17T04:19:51.237Z,98842.16
2022-08-17T04:22:30.773Z,98846.28
2022-08-17T04:25:07.522Z,98847.06
2022-08-17T04:27:34.292Z,98840.72
2022-08-17T04:30:01.630Z,98839.66
2022-08-17T04:33:04.099Z,98827.41
2022-08-17T04:35:22.246Z,98835.72
2022-08-17T04:37:49.192Z,98837.25
2022-08-17T04:40:34.856Z,98836.16
2022-08-17T04:43:08.690Z,98836.78
2022-08-17T04:45:55.226Z,98822.63
2022-08-17T04:48:29.727Z,98823.31
2022-08-17T04:51:09.943Z,98821.38
2022-08-17T04:53:37.895Z,98820.28
2022-08-17T04:56:05.123Z,98823.47
2022-08-17T04:58:32.119Z,98816.31
2022-08-17T05:00:58.760Z,98816.91
2022-08-17T05:03:25.916Z,98814.88
2022-08-17T05:05:53.732Z,98819.75
2022-08-17T05:08:21.345Z,98822.00
2022-08-17T05:10:48.742Z,98823.53
2022-08-17T05:13:18.306Z,98828.34
2022-08-17T05:15:47.887Z,98822.84
2022-08-17T05:18:15.927Z,98827.78
2022-08-17T05:20:43.343Z,98830.91
2022-08-17T05:23:13.054Z,98833.16
2022-08-17T05:25:47.505Z,98833.72
2022-08-17T05:28:16.788Z,98836.88
2022-08-17T05:30:46.163Z,98842.72
2022-08-17T05:33:21.920Z,98843.34
2022-08-17T05:35:51.445Z,98841.50
2022-08-17T05:38:20.624Z,98853.31
2022-08-17T05:40:47.839Z,98859.06
2022-08-17T05:43:29.009Z,98846.69
2022-08-17T05:46:10.438Z,98854.25
2022-08-17T05:48:43.845Z,98848.00
2022-08-17T05:51:31.829Z,98857.25
2022-08-17T05:54:10.443Z,98859.66
2022-08-17T05:56:58.046Z,98858.56
2022-08-17T05:59:45.898Z,98867.03
2022-08-17T06:02:24.616Z,98854.66
2022-08-17T06:05:10.431Z,98861.34
2022-08-17T06:07:57.196Z,98865.31
2022-08-17T06:10:38.960Z,98865.06
2022-08-17T06:13:24.815Z,98863.84
2022-08-17T06:15:54.020Z,98869.63
2022-08-17T06:18:23.604Z,98870.34
2022-08-17T06:21:13.216Z,98866.50
2022-08-17T06:23:46.200Z,98873.16
2022-08-17T06:26:27.571Z,98871.09
2022-08-17T06:29:27.987Z,98873.38
2022-08-17T06:31:54.658Z,98868.81
2022-08-17T06:34:21.677Z,98870.22
2022-08-17T06:37:03.612Z,98866.59
2022-08-17T06:39:53.448Z,98873.38
2022-08-17T06:42:54.687Z,98873.38
2022-08-17T06:45:49.248Z,98878.44
2022-08-17T06:48:25.599Z,98874.00
2022-08-17T06:51:14.012Z,98878.31
2022-08-17T06:53:45.763Z,98877.25
2022-08-17T06:56:53.727Z,98878.81
2022-08-17T06:59:34.742Z,98872.44
2022-08-17T07:02:44.423Z,98879.94
2022-08-17T07:05:09.893Z,98877.09
2022-08-17T07:07:57.930Z,98884.72
2022-08-17T07:10:27.501Z,98880.16
2022-08-17T07:12:58.520Z,98879.94
2022-08-17T07:15:42.348Z,98882.19
2022-08-17T07:18:09.721Z,98881.75
2022-08-17T07:20:42.857Z,98878.72
2022-08-17T07:23:45.727Z,98868.72
2022-08-17T07:26:13.317Z,98866.44
2022-08-17T07:28:40.239Z,98871.31
2022-08-17T07:31:08.078Z,98867.34
2022-08-17T07:33:36.933Z,98866.03
2022-08-17T07:36:03.799Z,98867.38
2022-08-17T07:38:33.325Z,98869.59
2022-08-17T07:41:05.318Z,98865.81
2022-08-17T07:43:46.978Z,98867.94
2022-08-17T07:47:05.594Z,98865.78
2022-08-17T07:49:32.091Z,98870.59
2022-08-17T07:52:48.394Z,98868.59
2022-08-17T07:54:52.947Z,98868.28
2022-08-17T07:57:20.124Z,98874.03
2022-08-17T08:00:19.481Z,98869.16
2022-08-17T08:03:31.876Z,98870.53
2022-08-17T08:06:02.078Z,98870.03
2022-08-17T08:08:42.415Z,98866.91
2022-08-17T08:11:12.844Z,98866.50
2022-08-17T08:13:43.932Z,98867.75
2022-08-17T08:16:29.496Z,98864.69
2022-08-17T08:19:01.825Z,98857.25
2022-08-17T08:21:55.179Z,98861.97
2022-08-17T08:24:21.806Z,98867.84
2022-08-17T08:27:02.556Z,98863.16
2022-08-17T08:29:38.276Z,98878.59
2022-08-17T08:32:29.099Z,98869.59
2022-08-17T08:35:31.481Z,98864.81
2022-08-17T08:38:34.448Z,98873.22
2022-08-17T08:41:19.498Z,98870.31
2022-08-17T08:44:04.732Z,98864.81
2022-08-17T08:46:44.102Z,98872.47
2022-08-17T08:49:59.527Z,98867.13
2022-08-17T08:52:49.515Z,98865.22
2022-08-17T08:55:35.566Z,98866.94
2022-08-17T08:58:31.511Z,98862.44
2022-08-17T09:00:58.682Z,98860.41
2022-08-17T09:04:06.717Z,98854.59
2022-08-17T09:07:05.465Z,98854.88
2022-08-17T09:09:41.250Z,98860.47
2022-08-17T09:12:18.068Z,98852.97
2022-08-17T09:15:12.859Z,98865.47
2022-08-17T09:17:51.299Z,98851.91
2022-08-17T09:20:45.354Z,98859.97
2022-08-17T09:23:34.344Z,98850.97
2022-08-17T09:26:14.341Z,98859.22
2022-08-17T09:28:49.229Z,98859.66
2022-08-17T09:31:20.256Z,98858.19
2022-08-17T09:33:48.504Z,98858.44
2022-08-17T09:36:18.712Z,98851.56
2022-08-17T09:38:53.647Z,98851.84
2022-08-17T09:41:32.456Z,98846.94
2022-08-17T09:44:12.106Z,98850.88
2022-08-17T09:47:03.777Z,98842.56
2022-08-17T09:49:40.655Z,98833.72
2022-08-17T09:52:23.809Z,98841.16
2022-08-17T09:54:52.395Z,98840.06
2022-08-17T09:57:34.138Z,98842.84
2022-08-17T10:00:13.055Z,98850.94
2022-08-17T10:02:55.231Z,98841.50
2022-08-17T10:05:56.721Z,98842.78
2022-08-17T10:08:27.629Z,98845.75
2022-08-17T10:11:07.089Z,98838.16
2022-08-17T10:13:39.575Z,98841.84
2022-08-17T10:16:30.428Z,98836.88
2022-08-17T10:19:07.353Z,98846.06
2022-08-17T10:22:00.958Z,98836.31
2022-08-17T10:25:20.879Z,98836.81
2022-08-17T10:27:44.064Z,98842.84
2022-08-17T10:30:14.003Z,98838.09
2022-08-17T10:32:47.695Z,98842.00
2022-08-17T10:35:28.815Z,98845.16
2022-08-17T10:38:24.446Z,98841.97
2022-08-17T10:40:58.371Z,98840.72
2022-08-17T10:43:44.729Z,98832.47
2022-08-17T10:46:43.247Z,98842.56
2022-08-17T10:49:18.841Z,98842.38
2022-08-17T10:51:54.431Z,98843.00
2022-08-17T10:54:24.148Z,98839.09
2022-08-17T10:56:53.355Z,98838.03
2022-08-17T10:59:34.871Z,98843.13
2022-08-17T11:02:12.573Z,98837.84
2022-08-17T11:05:01.115Z,98830.13
2022-08-17T11:07:43.830Z,98824.63
2022-08-17T11:10:16.721Z,98832.09
2022-08-17T11:12:46.018Z,98822.06
2022-08-17T11:15:56.598Z,98817.41
2022-08-17T11:18:40.829Z,98819.47
2022-08-17T11:21:55.108Z,98804.63
2022-08-17T11:24:28.281Z,98815.03
2022-08-17T11:27:12.269Z,98813.41
2022-08-17T11:29:56.809Z,98814.91
2022-08-17T11:32:31.004Z,98812.06
2022-08-17T11:35:44.998Z,98812.50
2022-08-17T11:38:49.531Z,98809.41
2022-08-17T11:41:30.817Z,98802.31
2022-08-17T11:44:06.646Z,98809.06
2022-08-17T11:47:18.650Z,98801.00
2022-08-17T11:50:25.784Z,98792.69
2022-08-17T11:52:54.970Z,98792.00
2022-08-17T11:55:37.542Z,98792.59
2022-08-17T11:58:39.961Z,98794.03
2022-08-17T12:01:33.575Z,98794.75
2022-08-17T12:04:25.066Z,98798.81
2022-08-17T12:07:10.375Z,98798.00
2022-08-17T12:09:46.217Z,98795.13
2022-08-17T12:12:35.966Z,98795.88
2022-08-17T12:15:11.853Z,98802.69
2022-08-17T12:17:42.653Z,98793.56
2022-08-17T12:20:23.362Z,98795.59
2022-08-17T12:23:08.075Z,98793.91
2022-08-17T12:25:47.612Z,98792.22
2022-08-17T12:28:35.400Z,98801.59
2022-08-17T12:31:07.931Z,98805.44
2022-08-17T12:33:37.286Z,98797.75
2022-08-17T12:36:08.541Z,98796.78
2022-08-17T12:38:37.850Z,98802.97
2022-08-17T12:41:26.357Z,98808.13
2022-08-17T12:44:05.031Z,98810.63
2022-08-17T12:46:55.805Z,98800.63
2022-08-17T12:49:32.643Z,98806.03
2022-08-17T12:52:11.220Z,98807.22
2022-08-17T12:55:11.042Z,98803.13
2022-08-17T12:57:40.301Z,98800.47
2022-08-17T13:00:22.073Z,98802.25
2022-08-17T13:02:52.399Z,98809.75
2022-08-17T13:05:38.115Z,98802.06
2022-08-17T13:08:14.866Z,98815.09
2022-08-17T13:10:41.624Z,98812.00
2022-08-17T13:13:26.538Z,98816.28
2022-08-17T13:15:55.778Z,98811.94
2022-08-17T13:18:35.612Z,98812.91
2022-08-17T13:21:02.544Z,98813.91
2022-08-17T13:23:31.380Z,98804.97
2022-08-17T13:26:05.292Z,98802.34
2022-08-17T13:28:36.170Z,98807.38
2022-08-17T13:31:21.210Z,98812.66
2022-08-17T13:33:47.975Z,98805.69
2022-08-17T13:36:30.205Z,98811.81
2022-08-17T13:39:12.392Z,98812.91
2022-08-17T13:41:39.291Z,98806.44
2022-08-17T13:44:39.450Z,98815.22
2022-08-17T13:47:17.468Z,98818.72
2022-08-17T13:49:48.827Z,98819.47
2022-08-17T13:52:52.261Z,98815.06
2022-08-17T13:55:22.039Z,98819.44
2022-08-17T13:58:06.566Z,98827.13
2022-08-17T14:00:35.466Z,98828.56
2022-08-17T14:03:03.790Z,98828.19
2022-08-17T14:05:31.587Z,98829.28
2022-08-17T14:08:02.215Z,98832.63
2022-08-17T14:10:35.808Z,98834.94
2022-08-17T14:13:02.726Z,98825.41
2022-08-17T14:15:55.485Z,98824.72
2022-08-17T14:18:18.979Z,98815.31
2022-08-17T14:21:02.330Z,98812.56
2022-08-17T14:23:35.237Z,98813.53
2022-08-17T14:26:02.103Z,98818.94
2022-08-17T14:28:28.807Z,98820.34
2022-08-17T14:30:55.545Z,98823.59
2022-08-17T14:33:24.702Z,98826.59
2022-08-17T14:35:53.591Z,98834.78
2022-08-17T14:38:20.663Z,98830.50
2022-08-17T14:40:48.731Z,98827.16
2022-08-17T14:43:15.844Z,98822.38
2022-08-17T14:45:43.050Z,98840.31
2022-08-17T14:48:10.487Z,98831.06
2022-08-17T14:50:41.027Z,98836.16
2022-08-17T14:53:09.686Z,98845.78
2022-08-17T14:55:39.818Z,98842.72
2022-08-17T14:58:07.446Z,98845.97
2022-08-17T15:00:34.763Z,98838.66
2022-08-17T15:03:02.351Z,98844.66
2022-08-17T15:05:33.477Z,98837.41
2022-08-17T15:08:01.705Z,98832.19
2022-08-17T15:10:29.829Z,98840.56
2022-08-17T15:12:57.481Z,98840.34
2022-08-17T15:15:24.490Z,98843.44
2022-08-17T15:17:51.607Z,98841.06
2022-08-17T15:20:22.823Z,98838.47
2022-08-17T15:22:50.571Z,98842.88
2022-08-17T15:25:19.069Z,98838.66
2022-08-17T15:27:45.765Z,98838.44
2022-08-17T15:30:12.896Z,98837.34
2022-08-17T15:32:41.360Z,98832.28
2022-08-17T15:35:18.973Z,98831.75
2022-08-17T15:37:53.872Z,98832.41
2022-08-17T15:40:20.525Z,98835.13
2022-08-17T15:42:47.099Z,98834.28
2022-08-17T15:45:16.470Z,98834.63
2022-08-17T15:47:43.323Z,98834.19
2022-08-17T15:50:10.639Z,98839.75
2022-08-17T15:52:40.290Z,98841.78
2022-08-17T15:55:12.618Z,98849.97
2022-08-17T15:57:39.871Z,98849.91
2022-08-17T16:00:09.600Z,98851.91
2022-08-17T16:03:32.030Z,98858.06
2022-08-17T16:05:25.375Z,98850.19
2022-08-17T16:07:53.194Z,98856.13
2022-08-17T16:10:21.060Z,98859.41
2022-08-17T16:12:49.810Z,98856.94
2022-08-17T16:15:18.183Z,98856.34
2022-08-17T16:17:44.852Z,98851.22
2022-08-17T16:20:19.773Z,98851.28
2022-08-17T16:22:49.339Z,98853.13
2022-08-17T16:25:23.042Z,98857.38
2022-08-17T16:28:09.696Z,98860.97
2022-08-17T16:30:37.308Z,98864.25
2022-08-17T16:33:04.429Z,98865.84
2022-08-17T16:35:31.428Z,98869.22
2022-08-17T16:37:58.777Z,98869.25
2022-08-17T16:40:27.826Z,98869.66
2022-08-17T16:42:55.489Z,98875.63
2022-08-17T16:45:27.299Z,98876.13
2022-08-17T16:47:54.730Z,98871.69
2022-08-17T16:50:23.435Z,98877.59
2022-08-17T16:52:50.577Z,98872.94
2022-08-17T16:55:20.137Z,98876.28
2022-08-17T16:57:50.712Z,98869.66
2022-08-17T17:00:19.369Z,98871.31
2022-08-17T17:02:48.250Z,98883.31
2022-08-17T17:05:43.459Z,98883.03
2022-08-17T17:08:15.220Z,98884.59
2022-08-17T17:10:48.906Z,98886.28
2022-08-17T17:14:08.455Z,98880.06
2022-08-17T17:16:53.033Z,98887.13
2022-08-17T17:19:35.002Z,98885.25
2022-08-17T17:22:19.670Z,98892.13
2022-08-17T17:24:56.074Z,98891.91
2022-08-17T17:27:56.775Z,98887.25
2022-08-17T17:30:43.289Z,98888.94
2022-08-17T17:33:22.537Z,98881.69
2022-08-17T17:35:56.864Z,98891.22
2022-08-17T17:38:32.951Z,98885.75
2022-08-17T17:41:09.115Z,98892.63
2022-08-17T17:43:40.093Z,98893.28
2022-08-17T17:46:26.565Z,98896.72
2022-08-17T17:48:56.756Z,98895.69
2022-08-17T17:52:06.538Z,98897.56
2022-08-17T17:54:52.241Z,98889.72
2022-08-17T17:58:13.364Z,98895.63
2022-08-17T18:01:13.126Z,98904.00
2022-08-17T18:04:08.881Z,98895.59
2022-08-17T18:07:15.536Z,98896.94
2022-08-17T18:09:42.313Z,98891.09
2022-08-17T18:12:25.267Z,98897.44
2022-08-17T18:15:10.241Z,98895.84
2022-08-17T18:17:37.052Z,98895.34
2022-08-17T18:20:07.371Z,98894.66
2022-08-17T18:22:34.182Z,98894.81
2022-08-17T18:25:00.879Z,98895.81
2022-08-17T18:27:51.068Z,98894.22
2022-08-17T18:30:17.793Z,98893.53
2022-08-17T18:32:46.562Z,98896.16
2022-08-17T18:35:15.802Z,98893.53
2022-08-17T18:37:49.376Z,98885.91
2022-08-17T18:40:21.610Z,98885.22
2022-08-17T18:43:03.441Z,98887.25
2022-08-17T18:45:39.085Z,98889.25
2022-08-17T18:48:18.803Z,98883.47
2022-08-17T18:50:45.796Z,98884.44
2022-08-17T18:53:34.542Z,98882.06
2022-08-17T18:56:22.486Z,98881.50
2022-08-17T18:59:18.154Z,98892.31
2022-08-17T19:01:59.982Z,98882.22
2022-08-17T19:04:39.750Z,98890.22
2022-08-17T19:07:08.803Z,98886.84
2022-08-17T19:09:48.638Z,98890.53
2022-08-17T19:13:00.675Z,98884.59
2022-08-17T19:15:34.863Z,98883.00
2022-08-17T19:18:15.627Z,98885.75
2022-08-17T19:20:50.757Z,98884.13
2022-08-17T19:23:20.174Z,98878.19
2022-08-17T19:25:50.771Z,98877.44
2022-08-17T19:28:54.600Z,98871.41
2022-08-17T19:31:27.388Z,98884.63
2022-08-17T19:33:56.191Z,98881.34
2022-08-17T19:36:47.329Z,98889.25
2022-08-17T19:39:38.484Z,98883.31
2022-08-17T19:42:31.084Z,98895.66
2022-08-17T19:45:26.563Z,98883.63
2022-08-17T19:48:03.119Z,98879.38
2022-08-17T19:50:52.702Z,98875.94
2022-08-17T19:54:01.437Z,98879.59
2022-08-17T19:56:31.687Z,98880.50
2022-08-17T19:59:01.255Z,98884.03
2022-08-17T20:01:38.781Z,98882.34
2022-08-17T20:04:15.687Z,98884.19
2022-08-17T20:06:45.733Z,98887.78
2022-08-17T20:09:38.382Z,98895.78
2022-08-17T20:12:09.986Z,98890.69
2022-08-17T20:14:51.710Z,98893.50
2022-08-17T20:17:25.679Z,98885.75
2022-08-17T20:20:07.494Z,98883.34
2022-08-17T20:23:13.611Z,98883.41
2022-08-17T20:25:47.557Z,98881.75
2022-08-17T20:28:24.673Z,98888.00
2022-08-17T20:30:52.041Z,98892.53
2022-08-17T20:33:36.897Z,98889.06
2022-08-17T20:36:19.909Z,98891.13
2022-08-17T20:38:58.997Z,98889.56
2022-08-17T20:41:28.892Z,98874.28
2022-08-17T20:43:55.463Z,98874.22
2022-08-17T20:46:40.337Z,98868.28
2022-08-17T20:49:57.904Z,98879.78
2022-08-17T20:52:48.321Z,98878.28
2022-08-17T20:55:51.580Z,98868.03
2022-08-17T20:58:24.678Z,98870.00
2022-08-17T21:01:00.499Z,98874.44
2022-08-17T21:03:27.063Z,98869.34
2022-08-17T21:06:04.804Z,98871.19
2022-08-17T21:08:54.267Z,98866.94
2022-08-17T21:11:56.778Z,98875.78
2022-08-17T21:14:28.648Z,98872.47
2022-08-17T21:17:29.668Z,98872.69
2022-08-17T21:20:25.316Z,98881.53
2022-08-17T21:23:19.644Z,98880.72
2022-08-17T21:26:28.078Z,98881.78
2022-08-17T21:29:29.904Z,98878.47
2022-08-17T21:32:05.455Z,98882.13
2022-08-17T21:34:39.649Z,98877.03
2022-08-17T21:37:26.186Z,98879.75
2022-08-17T21:40:18.821Z,98875.59
2022-08-17T21:42:53.728Z,98887.06
2022-08-17T21:45:40.316Z,98883.81
2022-08-17T21:48:23.902Z,98876.09
2022-08-17T21:51:14.509Z,98882.34
2022-08-17T21:53:56.085Z,98876.41
2022-08-17T21:56:36.381Z,98877.44
2022-08-17T21:59:07.448Z,98885.41
2022-08-17T22:01:41.003Z,98887.28
2022-08-17T22:04:11.255Z,98886.50
2022-08-17T22:06:41.761Z,98881.41
2022-08-17T22:09:13.732Z,98883.19
2022-08-17T22:12:02.980Z,98872.91
2022-08-17T22:14:52.064Z,98870.41
2022-08-17T22:17:24.986Z,98873.22
2022-08-17T22:19:59.590Z,98884.53
2022-08-17T22:22:29.217Z,98886.38
2022-08-17T22:25:07.172Z,98889.84
2022-08-17T22:27:56.523Z,98891.53
2022-08-17T22:31:01.347Z,98888.91
2022-08-17T22:33:40.823Z,98888.00
2022-08-17T22:36:29.186Z,98888.81
2022-08-17T22:39:10.761Z,98892.25
2022-08-17T22:41:58.978Z,98900.94
2022-08-17T22:44:32.001Z,98884.72
2022-08-17T22:47:31.171Z,98898.22
2022-08-17T22:50:03.791Z,98902.50
2022-08-17T22:53:01.771Z,98896.41
2022-08-17T22:55:50.171Z,98899.84
2022-08-17T22:58:38.966Z,98900.63
2022-08-17T23:01:31.515Z,98891.03
2022-08-17T23:04:20.230Z,98889.28
2022-08-17T23:06:46.899Z,98891.03
2022-08-17T23:09:13.507Z,98896.25
2022-08-17T23:11:49.582Z,98897.19
2022-08-17T23:14:19.740Z,98886.06
2022-08-17T23:16:50.882Z,98899.91
2022-08-17T23:19:19.982Z,98888.69
2022-08-17T23:21:48.676Z,98892.19
2022-08-17T23:24:20.709Z,98897.41
2022-08-17T23:26:47.439Z,98900.91
2022-08-17T23:29:14.018Z,98897.56
2022-08-17T23:31:40.852Z,98894.09
2022-08-17T23:34:11.920Z,98901.03
2022-08-17T23:36:38.618Z,98901.97
2022-08-17T23:39:06.478Z,98908.94
2022-08-17T23:41:38.444Z,98902.88
2022-08-17T23:44:06.399Z,98901.19
2022-08-17T23:46:33.110Z,98904.69
2022-08-17T23:49:00.477Z,98909.06
2022-08-17T23:51:30.837Z,98899.72
2022-08-17T23:54:07.694Z,98908.31
2022-08-17T23:56:41.870Z,98910.91
2022-08-17T23:59:08.493Z,98911.78
